Antsalova Airport


Codes: FMMG/WAQ
Name: Antsalova Airport
City: Antsalova
Country: Madagascar
Elevation: 551 ft.

Photos at Antsalova Airport


   Photos courtesy of SpottingLog. You can add your own sightings and photos by signing up for a free trial today.



No photos found.

Weather at Antsalova Airport


Time (UTC)DescriptionTempratureWindCloud coverageVisibilityPressureHumidity
17-Jun-2024 06:00Few Clouds25°C2 mph, S22%10000m1019hPa49%
17-Jun-2024 09:00Scattered Clouds27°C4 mph, SW28%10000m1018hPa42%
17-Jun-2024 12:00Scattered Clouds30°C7 mph, SW25%10000m1016hPa35%
17-Jun-2024 15:00Clear Sky23°C4 mph, SW0%10000m1016hPa58%
17-Jun-2024 18:00Clear Sky20°C0 mph, NE0%10000m1018hPa75%
17-Jun-2024 21:00Clear Sky19°C2 mph, SE0%10000m1018hPa79%
18-Jun-2024 00:00Clear Sky19°C2 mph, E1%10000m1017hPa85%
18-Jun-2024 03:00Clear Sky19°C2 mph, SE3%10000m1017hPa87%
18-Jun-2024 06:00Few Clouds25°C2 mph, S15%10000m1019hPa60%
18-Jun-2024 09:00Clear Sky31°C2 mph, SW0%10000m1017hPa37%
18-Jun-2024 12:00Clear Sky31°C9 mph, SW1%10000m1015hPa39%
18-Jun-2024 15:00Clear Sky23°C4 mph, SW8%10000m1017hPa71%
18-Jun-2024 18:00Clear Sky20°C2 mph, SE4%10000m1018hPa84%
18-Jun-2024 21:00Clear Sky20°C2 mph, SE0%10000m1018hPa91%
19-Jun-2024 00:00Clear Sky19°C4 mph, SE0%10000m1017hPa94%
19-Jun-2024 03:00Clear Sky19°C2 mph, SE1%10000m1018hPa93%
19-Jun-2024 06:00Clear Sky25°C2 mph, S0%10000m1019hPa59%
19-Jun-2024 09:00Clear Sky32°C0 mph, SW0%10000m1017hPa35%
19-Jun-2024 12:00Clear Sky31°C7 mph, SW0%10000m1015hPa35%
19-Jun-2024 15:00Clear Sky23°C7 mph, SW0%10000m1016hPa74%
19-Jun-2024 18:00Clear Sky20°C2 mph, S0%10000m1018hPa90%
19-Jun-2024 21:00Clear Sky19°C2 mph, SE0%10000m1019hPa95%
20-Jun-2024 00:00Clear Sky19°C4 mph, SE3%10000m1019hPa97%
20-Jun-2024 03:00Few Clouds19°C2 mph, SE14%10000m1019hPa96%
20-Jun-2024 06:00Clear Sky24°C2 mph, S7%10000m1021hPa65%
20-Jun-2024 09:00Clear Sky30°C4 mph, SW0%10000m1019hPa41%
20-Jun-2024 12:00Clear Sky31°C9 mph, SW1%10000m1017hPa38%
20-Jun-2024 15:00Clear Sky22°C7 mph, SW2%10000m1019hPa73%
20-Jun-2024 18:00Clear Sky19°C2 mph, SE1%10000m1021hPa89%
20-Jun-2024 21:00Clear Sky18°C2 mph, SE0%10000m1021hPa93%
21-Jun-2024 00:00Clear Sky18°C2 mph, SE0%10000m1020hPa93%
21-Jun-2024 03:00Clear Sky18°C2 mph, E0%10000m1021hPa93%
21-Jun-2024 06:00Clear Sky24°C2 mph, NE0%10000m1023hPa58%
21-Jun-2024 09:00Clear Sky30°C2 mph, NE0%10000m1021hPa37%
21-Jun-2024 12:00Clear Sky31°C4 mph, SW1%10000m1019hPa33%
21-Jun-2024 15:00Clear Sky22°C4 mph, SW2%10000m1020hPa75%
21-Jun-2024 18:00Clear Sky19°C2 mph, SE1%10000m1021hPa88%
21-Jun-2024 21:00Clear Sky19°C2 mph, SE0%10000m1021hPa90%
22-Jun-2024 00:00Clear Sky18°C2 mph, E0%10000m1021hPa90%
22-Jun-2024 03:00Clear Sky18°C4 mph, E0%10000m1021hPa82%